createdAt,value
2022-10-11T00:00:55.128Z,102248.16
2022-10-11T00:03:42.327Z,102249.97
2022-10-11T00:06:29.486Z,102250.06
2022-10-11T00:09:17.018Z,102261.38
2022-10-11T00:11:44.413Z,102263.19
2022-10-11T00:14:11.611Z,102267.53
2022-10-11T00:16:40.965Z,102264.97
2022-10-11T00:19:08.209Z,102267.66
2022-10-11T00:21:36.747Z,102265.13
2022-10-11T00:24:05.070Z,102260.84
2022-10-11T00:26:34.888Z,102255.63
2022-10-11T00:29:02.068Z,102268.66
2022-10-11T00:31:34.659Z,102263.44
2022-10-11T00:34:02.783Z,102266.88
2022-10-11T00:36:29.973Z,102274.69
2022-10-11T00:38:57.283Z,102268.63
2022-10-11T00:41:24.414Z,102264.31
2022-10-11T00:44:23.852Z,102277.31
2022-10-11T00:47:10.318Z,102274.75
2022-10-11T00:49:44.449Z,102272.16
2022-10-11T00:52:29.172Z,102274.81
2022-10-11T00:55:14.370Z,102276.59
2022-10-11T00:57:48.565Z,102280.13
2022-10-11T01:00:17.014Z,102284.47
2022-10-11T01:03:05.982Z,102286.22
2022-10-11T01:05:48.065Z,102285.38
2022-10-11T01:08:16.223Z,102276.72
2022-10-11T01:10:44.821Z,102279.38
2022-10-11T01:13:38.554Z,102288.91
2022-10-11T01:16:54.868Z,102288.06
2022-10-11T01:20:09.215Z,102287.25
2022-10-11T01:22:57.889Z,102283.78
2022-10-11T01:26:20.544Z,102282.13
2022-10-11T01:29:31.575Z,102290.84
2022-10-11T01:32:19.906Z,102294.34
2022-10-11T01:35:08.972Z,102286.53
2022-10-11T01:37:48.646Z,102291.78
2022-10-11T01:40:39.149Z,102295.31
2022-10-11T01:43:06.853Z,102299.69
2022-10-11T01:45:37.261Z,102294.50
2022-10-11T01:48:13.583Z,102296.34
2022-10-11T01:50:55.483Z,102286.78
2022-10-11T01:53:47.788Z,102287.69
2022-10-11T01:56:45.614Z,102294.66
2022-10-11T02:00:10.923Z,102294.66
2022-10-11T02:03:21.250Z,102295.63
2022-10-11T02:06:09.606Z,102296.56
2022-10-11T02:09:23.047Z,102301.84
2022-10-11T02:11:52.938Z,102296.69
2022-10-11T02:14:30.777Z,102305.41
2022-10-11T02:17:08.467Z,102311.44
2022-10-11T02:19:44.712Z,102306.25
2022-10-11T02:22:33.822Z,102312.31
2022-10-11T02:25:09.388Z,102314.06
2022-10-11T02:27:42.065Z,102314.97
2022-10-11T02:30:13.059Z,102314.97
2022-10-11T02:32:44.850Z,102312.38
2022-10-11T02:35:12.679Z,102314.16
2022-10-11T02:38:15.655Z,102315.91
2022-10-11T02:40:48.983Z,102315.94
2022-10-11T02:43:57.354Z,102316.84
2022-10-11T02:46:30.434Z,102323.78
2022-10-11T02:49:03.186Z,102322.09
2022-10-11T02:51:32.471Z,102325.56
2022-10-11T02:54:00.737Z,102325.59
2022-10-11T02:56:28.008Z,102325.59
2022-10-11T02:58:55.285Z,102324.75
2022-10-11T03:01:22.558Z,102320.41
2022-10-11T03:03:49.806Z,102319.59
2022-10-11T03:06:16.964Z,102326.53
2022-10-11T03:08:44.123Z,102320.47
2022-10-11T03:11:11.276Z,102324.88
2022-10-11T03:13:38.404Z,102322.31
2022-10-11T03:16:05.638Z,102329.31
2022-10-11T03:18:32.812Z,102323.28
2022-10-11T03:21:00.056Z,102329.41
2022-10-11T03:23:27.353Z,102332.88
2022-10-11T03:25:54.558Z,102334.69
2022-10-11T03:28:22.006Z,102336.44
2022-10-11T03:30:51.910Z,102330.38
2022-10-11T03:33:19.502Z,102332.97
2022-10-11T03:35:51.745Z,102333.00
2022-10-11T03:38:22.513Z,102333.03
2022-10-11T03:40:50.476Z,102340.84
2022-10-11T03:43:18.260Z,102342.63
2022-10-11T03:45:46.567Z,102343.50
2022-10-11T03:48:13.800Z,102346.94
2022-10-11T03:50:41.079Z,102350.44
2022-10-11T03:53:08.592Z,102345.25
2022-10-11T03:55:38.640Z,102347.88
2022-10-11T03:58:06.684Z,102341.78
2022-10-11T04:00:35.742Z,102348.72
2022-10-11T04:03:03.959Z,102350.47
2022-10-11T04:05:31.370Z,102351.31
2022-10-11T04:08:12.477Z,102358.28
2022-10-11T04:10:43.000Z,102356.56
2022-10-11T04:13:12.091Z,102357.44
2022-10-11T04:15:39.822Z,102354.03
2022-10-11T04:18:08.962Z,102358.41
2022-10-11T04:20:36.800Z,102372.28
2022-10-11T04:23:04.076Z,102369.69
2022-10-11T04:25:31.198Z,102362.75
2022-10-11T04:27:58.919Z,102370.56
2022-10-11T04:30:26.231Z,102362.78
2022-10-11T04:32:53.419Z,102374.94
2022-10-11T04:35:20.649Z,102380.16
2022-10-11T04:37:48.127Z,102379.34
2022-10-11T04:40:15.777Z,102381.97
2022-10-11T04:42:43.348Z,102380.25
2022-10-11T04:45:10.820Z,102384.59
2022-10-11T04:47:40.398Z,102387.19
2022-10-11T04:50:08.586Z,102389.78
2022-10-11T04:52:35.742Z,102386.31
2022-10-11T04:55:04.792Z,102382.88
2022-10-11T04:57:33.644Z,102395.00
2022-10-11T05:00:05.444Z,102391.56
2022-10-11T05:02:34.349Z,102392.41
2022-10-11T05:05:04.335Z,102395.00
2022-10-11T05:07:33.819Z,102398.47
2022-10-11T05:10:03.367Z,102395.00
2022-10-11T05:12:33.303Z,102392.41
2022-10-11T05:15:03.899Z,102404.50
2022-10-11T05:17:33.880Z,102405.38
2022-10-11T05:20:03.979Z,102402.78
2022-10-11T05:22:32.882Z,102404.50
2022-10-11T05:25:03.290Z,102401.91
2022-10-11T05:27:31.669Z,102403.66
2022-10-11T05:30:01.952Z,102409.75
2022-10-11T05:32:31.463Z,102414.97
2022-10-11T05:35:00.548Z,102408.91
2022-10-11T05:37:28.895Z,102414.09
2022-10-11T05:39:57.839Z,102416.69
2022-10-11T05:42:26.467Z,102408.06
2022-10-11T05:44:55.487Z,102413.28
2022-10-11T05:47:24.857Z,102420.25
2022-10-11T05:50:10.986Z,102420.25
2022-10-11T05:52:38.363Z,102411.59
2022-10-11T05:55:07.108Z,102417.69
2022-10-11T05:57:34.606Z,102422.91
2022-10-11T06:00:02.209Z,102423.75
2022-10-11T06:02:40.153Z,102428.09
2022-10-11T06:05:08.251Z,102433.31
2022-10-11T06:07:38.381Z,102429.84
2022-10-11T06:10:07.010Z,102441.09
2022-10-11T06:12:34.617Z,102431.56
2022-10-11T06:15:06.501Z,102439.38
2022-10-11T06:17:33.931Z,102442.81
2022-10-11T06:20:01.430Z,102448.00
2022-10-11T06:22:28.719Z,102448.88
2022-10-11T06:24:59.012Z,102454.06
2022-10-11T06:27:26.483Z,102449.72
2022-10-11T06:29:56.881Z,102454.03
2022-10-11T06:32:24.743Z,102460.06
2022-10-11T06:34:52.448Z,102459.19
2022-10-11T06:37:20.425Z,102454.84
2022-10-11T06:39:50.548Z,102462.63
2022-10-11T06:42:20.545Z,102463.44
2022-10-11T06:44:50.486Z,102461.69
2022-10-11T06:47:21.810Z,102474.63
2022-10-11T06:49:53.269Z,102472.88
2022-10-11T06:52:25.045Z,102467.63
2022-10-11T06:54:56.072Z,102476.22
2022-10-11T06:57:27.984Z,102476.19
2022-10-11T06:59:59.459Z,102477.00
2022-10-11T07:02:31.755Z,102480.44
2022-10-11T07:05:02.905Z,102481.22
2022-10-11T07:07:36.832Z,102482.03
2022-10-11T07:10:09.079Z,102486.31
2022-10-11T07:12:44.918Z,102487.09
2022-10-11T07:15:14.347Z,102488.78
2022-10-11T07:17:46.371Z,102494.81
2022-10-11T07:20:17.611Z,102487.84
2022-10-11T07:22:54.287Z,102491.25
2022-10-11T07:25:21.481Z,102498.16
2022-10-11T07:27:48.723Z,102501.56
2022-10-11T07:30:15.922Z,102501.53
2022-10-11T07:32:43.115Z,102508.44
2022-10-11T07:35:10.259Z,102504.88
2022-10-11T07:37:37.508Z,102504.81
2022-10-11T07:40:06.932Z,102506.53
2022-10-11T07:42:34.245Z,102510.81
2022-10-11T07:45:01.386Z,102518.53
2022-10-11T07:47:28.671Z,102515.84
2022-10-11T07:49:55.878Z,102518.41
2022-10-11T07:52:23.066Z,102515.72
2022-10-11T07:55:14.350Z,102522.63
2022-10-11T07:57:41.585Z,102519.06
2022-10-11T08:00:09.863Z,102522.44
2022-10-11T08:02:39.843Z,102517.16
2022-10-11T08:05:07.647Z,102514.47
2022-10-11T08:07:35.085Z,102516.16
2022-10-11T08:10:02.457Z,102521.22
2022-10-11T08:12:29.627Z,102522.78
2022-10-11T08:14:56.912Z,102524.38
2022-10-11T08:17:24.912Z,102522.47
2022-10-11T08:19:52.362Z,102522.31
2022-10-11T08:22:19.580Z,102532.66
2022-10-11T08:24:49.333Z,102529.91
2022-10-11T08:27:16.585Z,102535.00
2022-10-11T08:29:43.832Z,102528.84
2022-10-11T08:32:12.194Z,102532.16
2022-10-11T08:34:39.405Z,102535.47
2022-10-11T08:37:06.591Z,102540.56
2022-10-11T08:39:34.737Z,102543.94
2022-10-11T08:42:23.563Z,102545.47
2022-10-11T08:45:11.374Z,102544.41
2022-10-11T08:47:46.914Z,102554.66
2022-10-11T08:50:23.840Z,102551.88
2022-10-11T08:53:53.518Z,102558.66
2022-10-11T08:56:23.947Z,102556.69
2022-10-11T08:59:14.995Z,102556.47
2022-10-11T09:01:59.001Z,102556.28
2022-10-11T09:04:26.425Z,102557.81
2022-10-11T09:07:45.855Z,102545.38
2022-10-11T09:10:56.072Z,102553.00
2022-10-11T09:13:44.258Z,102556.25
2022-10-11T09:17:17.724Z,102563.03
2022-10-11T09:20:40.234Z,102550.50
2022-10-11T09:23:45.156Z,102559.84
2022-10-11T09:26:51.996Z,102563.03
2022-10-11T09:30:04.293Z,102559.28
2022-10-11T09:32:45.609Z,102556.44
2022-10-11T09:35:23.000Z,102570.22
2022-10-11T09:38:05.910Z,102557.84
2022-10-11T09:40:54.885Z,102562.03
2022-10-11T09:43:22.269Z,102554.91
2022-10-11T09:45:49.846Z,102561.66
2022-10-11T09:48:40.239Z,102554.41
2022-10-11T09:51:20.670Z,102561.06
2022-10-11T09:54:03.253Z,102560.94
2022-10-11T09:56:35.098Z,102564.91
2022-10-11T09:59:30.060Z,102566.38
2022-10-11T10:02:20.244Z,102561.75
2022-10-11T10:05:21.137Z,102551.00
2022-10-11T10:08:10.103Z,102560.31
2022-10-11T10:10:54.689Z,102560.84
2022-10-11T10:13:44.200Z,102561.25
2022-10-11T10:16:29.056Z,102559.09
2022-10-11T10:19:24.119Z,102560.88
2022-10-11T10:21:56.348Z,102558.38
2022-10-11T10:24:41.767Z,102558.69
2022-10-11T10:27:16.886Z,102543.41
2022-10-11T10:30:08.434Z,102555.09
2022-10-11T10:32:50.423Z,102558.09
2022-10-11T10:35:51.922Z,102551.06
2022-10-11T10:38:52.013Z,102551.25
2022-10-11T10:41:20.093Z,102552.88
2022-10-11T10:43:59.248Z,102556.97
2022-10-11T10:47:15.669Z,102552.59
2022-10-11T10:50:16.953Z,102555.63
2022-10-11T10:53:27.449Z,102553.75
2022-10-11T10:56:30.647Z,102555.78
2022-10-11T10:59:19.294Z,102555.53
2022-10-11T11:02:39.020Z,102551.69
2022-10-11T11:05:45.915Z,102543.84
2022-10-11T11:08:37.262Z,102549.47
2022-10-11T11:11:39.389Z,102545.94
2022-10-11T11:14:32.187Z,102544.03
2022-10-11T11:17:25.810Z,102538.56
2022-10-11T11:20:31.803Z,102533.22
2022-10-11T11:23:54.283Z,102529.25
2022-10-11T11:26:58.627Z,102530.09
2022-10-11T11:30:06.683Z,102528.22
2022-10-11T11:33:38.618Z,102526.19
2022-10-11T11:36:23.244Z,102521.69
2022-10-11T11:39:14.798Z,102516.34
2022-10-11T11:42:13.747Z,102514.66
2022-10-11T11:44:49.919Z,102520.00
2022-10-11T11:47:46.017Z,102509.25
2022-10-11T11:50:22.462Z,102506.31
2022-10-11T11:53:08.003Z,102501.50
2022-10-11T11:56:13.409Z,102501.09
2022-10-11T11:58:53.489Z,102492.78
2022-10-11T12:01:42.763Z,102497.63
2022-10-11T12:04:30.521Z,102491.91
2022-10-11T12:07:17.384Z,102487.66
2022-10-11T12:09:52.542Z,102491.44
2022-10-11T12:12:36.385Z,102486.69
2022-10-11T12:15:10.018Z,102488.63
2022-10-11T12:17:59.164Z,102486.38
2022-10-11T12:20:33.140Z,102490.16
2022-10-11T12:23:28.435Z,102488.66
2022-10-11T12:26:29.724Z,102479.16
2022-10-11T12:29:28.742Z,102478.47
2022-10-11T12:32:00.017Z,102481.25
2022-10-11T12:34:43.103Z,102470.47
2022-10-11T12:37:33.677Z,102478.63
2022-10-11T12:40:01.620Z,102483.34
2022-10-11T12:42:35.197Z,102471.63
2022-10-11T12:45:14.777Z,102473.69
2022-10-11T12:48:19.719Z,102477.66
2022-10-11T12:51:33.936Z,102468.38
2022-10-11T12:54:34.624Z,102471.38
2022-10-11T12:58:06.272Z,102462.91
2022-10-11T13:01:00.451Z,102465.00
2022-10-11T13:03:46.604Z,102464.88
2022-10-11T13:06:36.382Z,102461.19
2022-10-11T13:09:33.538Z,102459.44
2022-10-11T13:12:09.280Z,102462.06
2022-10-11T13:14:50.758Z,102459.72
2022-10-11T13:17:37.250Z,102456.66
2022-10-11T13:20:27.896Z,102449.25
2022-10-11T13:22:57.897Z,102451.41
2022-10-11T13:25:37.615Z,102457.13
2022-10-11T13:28:09.724Z,102448.66
2022-10-11T13:30:43.977Z,102449.72
2022-10-11T13:33:42.636Z,102451.81
2022-10-11T13:36:17.916Z,102454.00
2022-10-11T13:39:00.104Z,102449.06
2022-10-11T13:41:31.856Z,102444.94
2022-10-11T13:44:00.794Z,102442.44
2022-10-11T13:46:31.301Z,102444.34
2022-10-11T13:49:05.159Z,102441.78
2022-10-11T13:51:37.917Z,102443.44
2022-10-11T13:54:13.452Z,102440.78
2022-10-11T13:56:52.269Z,102443.28
2022-10-11T13:59:24.952Z,102438.00
2022-10-11T14:02:01.818Z,102440.50
2022-10-11T14:04:41.410Z,102442.16
2022-10-11T14:07:38.454Z,102446.44
2022-10-11T14:10:07.772Z,102434.03
2022-10-11T14:12:44.250Z,102430.38
2022-10-11T14:15:30.900Z,102435.44
2022-10-11T14:18:01.088Z,102432.22
2022-10-11T14:20:41.755Z,102438.63
2022-10-11T14:23:08.964Z,102432.78
2022-10-11T14:25:36.207Z,102432.03
2022-10-11T14:28:05.698Z,102426.03
2022-10-11T14:30:33.080Z,102423.84
2022-10-11T14:33:01.809Z,102425.00
2022-10-11T14:35:33.062Z,102427.84
2022-10-11T14:38:00.894Z,102420.00
2022-10-11T14:40:31.521Z,102419.84
2022-10-11T14:42:58.818Z,102413.78
2022-10-11T14:45:26.175Z,102416.84
2022-10-11T14:47:53.543Z,102419.03
2022-10-11T14:50:58.029Z,102412.81
2022-10-11T14:53:25.849Z,102409.28
2022-10-11T14:55:53.313Z,102412.41
2022-10-11T14:58:20.600Z,102416.03
2022-10-11T15:00:47.986Z,102415.44
2022-10-11T15:03:15.429Z,102418.00
2022-10-11T15:05:42.693Z,102417.47
2022-10-11T15:08:11.946Z,102415.56
2022-10-11T15:10:41.813Z,102421.13
2022-10-11T15:13:09.958Z,102414.34
2022-10-11T15:15:41.241Z,102411.44
2022-10-11T15:18:13.718Z,102412.59
2022-10-11T15:20:46.200Z,102400.81
2022-10-11T15:23:14.142Z,102403.59
2022-10-11T15:25:42.669Z,102396.19
2022-10-11T15:28:32.182Z,102403.59
2022-10-11T15:31:00.670Z,102402.34
2022-10-11T15:33:28.040Z,102398.84
2022-10-11T15:35:55.310Z,102398.34
2022-10-11T15:38:25.838Z,102389.41
2022-10-11T15:40:54.782Z,102395.56
2022-10-11T15:43:24.810Z,102388.38
2022-10-11T15:45:52.666Z,102395.66
2022-10-11T15:48:26.309Z,102388.78
2022-10-11T15:50:55.320Z,102376.91
2022-10-11T15:53:28.696Z,102383.59
2022-10-11T15:56:02.523Z,102388.88
2022-10-11T15:58:35.382Z,102374.53
2022-10-11T16:01:20.714Z,102383.56
2022-10-11T16:03:50.837Z,102382.16
2022-10-11T16:06:19.702Z,102379.16
2022-10-11T16:08:47.947Z,102377.63
2022-10-11T16:11:15.500Z,102372.22
2022-10-11T16:13:43.051Z,102387.44
2022-10-11T16:16:11.526Z,102372.31
2022-10-11T16:18:40.702Z,102377.25
2022-10-11T16:21:15.462Z,102376.69
2022-10-11T16:23:42.997Z,102384.53
2022-10-11T16:26:17.720Z,102380.56
2022-10-11T16:28:45.121Z,102386.22
2022-10-11T16:31:18.363Z,102390.84
2022-10-11T16:33:47.149Z,102390.06
2022-10-11T16:36:32.736Z,102386.63
2022-10-11T16:39:04.817Z,102383.84
2022-10-11T16:41:32.091Z,102384.66
2022-10-11T16:43:59.940Z,102385.41
2022-10-11T16:46:27.228Z,102387.00
2022-10-11T16:48:58.330Z,102384.91
2022-10-11T16:51:25.964Z,102385.44
2022-10-11T16:53:53.910Z,102379.84
2022-10-11T16:56:24.100Z,102379.41
2022-10-11T16:58:55.603Z,102382.56
2022-10-11T17:01:24.344Z,102375.94
2022-10-11T17:03:52.764Z,102380.78
2022-10-11T17:06:20.507Z,102374.25
2022-10-11T17:08:50.797Z,102377.44
2022-10-11T17:11:18.843Z,102389.22
2022-10-11T17:13:47.846Z,102388.75
2022-10-11T17:16:17.976Z,102379.59
2022-10-11T17:18:45.407Z,102388.66
2022-10-11T17:21:16.853Z,102385.44
2022-10-11T17:23:44.939Z,102395.31
2022-10-11T17:26:26.910Z,102396.50
2022-10-11T17:28:58.903Z,102393.25
2022-10-11T17:31:28.108Z,102396.16
2022-10-11T17:34:00.601Z,102391.13
2022-10-11T17:36:34.518Z,102401.06
2022-10-11T17:39:09.142Z,102395.13
2022-10-11T17:41:37.055Z,102396.22
2022-10-11T17:44:05.184Z,102394.69
2022-10-11T17:46:32.875Z,102395.78
2022-10-11T17:49:04.803Z,102399.56
2022-10-11T17:51:33.008Z,102401.59
2022-10-11T17:54:00.236Z,102398.28
2022-10-11T17:56:33.717Z,102401.13
2022-10-11T17:59:03.942Z,102402.25
2022-10-11T18:01:31.417Z,102405.06
2022-10-11T18:04:04.231Z,102403.44
2022-10-11T18:06:38.304Z,102399.25
2022-10-11T18:09:05.862Z,102399.38
2022-10-11T18:11:34.395Z,102397.88
2022-10-11T18:14:02.234Z,102404.16
2022-10-11T18:16:30.943Z,102402.59
2022-10-11T18:18:59.324Z,102400.16
2022-10-11T18:21:33.961Z,102396.88
2022-10-11T18:24:08.110Z,102395.38
2022-10-11T18:26:35.378Z,102399.91
2022-10-11T18:29:03.378Z,102399.22
2022-10-11T18:31:36.151Z,102395.91
2022-10-11T18:34:08.350Z,102402.22
2022-10-11T18:36:36.658Z,102392.75
2022-10-11T18:39:11.276Z,102398.16
2022-10-11T18:41:42.125Z,102400.06
2022-10-11T18:44:14.060Z,102402.03
2022-10-11T18:46:42.441Z,102403.03
2022-10-11T18:49:09.850Z,102398.78
2022-10-11T18:51:42.560Z,102398.91
2022-10-11T18:54:15.290Z,102390.38
2022-10-11T18:56:46.168Z,102390.50
2022-10-11T18:59:17.588Z,102387.16
2022-10-11T19:01:57.711Z,102387.28
2022-10-11T19:04:34.300Z,102390.00
2022-10-11T19:07:23.403Z,102390.16
2022-10-11T19:10:00.637Z,102393.75
2022-10-11T19:12:36.189Z,102388.63
2022-10-11T19:15:12.126Z,102389.59
2022-10-11T19:17:59.305Z,102385.38
2022-10-11T19:20:38.622Z,102387.22
2022-10-11T19:23:15.202Z,102388.22
2022-10-11T19:25:57.741Z,102385.72
2022-10-11T19:28:27.965Z,102383.22
2022-10-11T19:31:10.321Z,102392.00
2022-10-11T19:33:50.019Z,102379.91
2022-10-11T19:36:24.664Z,102380.00
2022-10-11T19:39:04.626Z,102376.66
2022-10-11T19:41:43.559Z,102375.88
2022-10-11T19:44:21.660Z,102373.38
2022-10-11T19:47:10.065Z,102372.56
2022-10-11T19:49:47.708Z,102376.19
2022-10-11T19:52:29.642Z,102375.38
2022-10-11T19:55:12.861Z,102370.28
2022-10-11T19:58:02.380Z,102373.00
2022-10-11T20:00:42.810Z,102370.44
2022-10-11T20:03:10.263Z,102373.13
2022-10-11T20:05:38.118Z,102378.41
2022-10-11T20:08:05.412Z,102371.47
2022-10-11T20:10:33.586Z,102369.78
2022-10-11T20:13:00.747Z,102363.72
2022-10-11T20:15:27.902Z,102375.06
2022-10-11T20:17:55.131Z,102367.25
2022-10-11T20:20:22.299Z,102377.75
2022-10-11T20:22:49.496Z,102363.03
2022-10-11T20:25:16.697Z,102369.09
2022-10-11T20:27:44.078Z,102365.66
2022-10-11T20:30:12.570Z,102371.81
2022-10-11T20:32:40.229Z,102372.72
2022-10-11T20:35:09.420Z,102364.06
2022-10-11T20:37:37.400Z,102353.69
2022-10-11T20:40:06.376Z,102356.34
2022-10-11T20:42:33.680Z,102365.09
2022-10-11T20:45:00.885Z,102359.06
2022-10-11T20:47:28.104Z,102362.56
2022-10-11T20:49:55.303Z,102366.13
2022-10-11T20:52:23.702Z,102372.28
2022-10-11T20:54:51.018Z,102374.06
2022-10-11T20:57:18.197Z,102378.47
2022-10-11T20:59:45.461Z,102382.03
2022-10-11T21:02:18.028Z,102375.09
2022-10-11T21:04:46.122Z,102386.44
2022-10-11T21:07:13.315Z,102378.63
2022-10-11T21:09:40.593Z,102376.94
2022-10-11T21:12:07.918Z,102379.53
2022-10-11T21:14:35.119Z,102382.25
2022-10-11T21:17:02.449Z,102387.53
2022-10-11T21:19:29.626Z,102381.50
2022-10-11T21:21:57.231Z,102377.25
2022-10-11T21:24:24.366Z,102369.50
2022-10-11T21:26:51.631Z,102370.44
2022-10-11T21:29:19.000Z,102374.00
2022-10-11T21:31:46.190Z,102370.66
2022-10-11T21:34:17.976Z,102373.34
2022-10-11T21:36:45.205Z,102377.78
2022-10-11T21:39:12.386Z,102378.72
2022-10-11T21:41:42.082Z,102378.78
2022-10-11T21:44:09.347Z,102377.94
2022-10-11T21:47:01.734Z,102371.91
2022-10-11T21:49:23.825Z,102371.97
2022-10-11T21:51:51.255Z,102371.16
2022-10-11T21:54:18.780Z,102376.44
2022-10-11T21:56:46.071Z,102375.66
2022-10-11T21:59:15.677Z,102379.19
2022-10-11T22:01:43.993Z,102373.19
2022-10-11T22:04:11.919Z,102374.97
2022-10-11T22:06:39.860Z,102379.31
2022-10-11T22:09:08.818Z,102375.06
2022-10-11T22:11:36.625Z,102375.13
2022-10-11T22:14:04.350Z,102370.88
2022-10-11T22:16:34.801Z,102370.94
2022-10-11T22:19:02.300Z,102375.34
2022-10-11T22:21:29.946Z,102369.28
2022-10-11T22:23:57.210Z,102360.66
2022-10-11T22:26:30.893Z,102365.06
2022-10-11T22:29:00.288Z,102363.38
2022-10-11T22:31:29.327Z,102355.66
2022-10-11T22:34:00.365Z,102361.75
2022-10-11T22:36:30.421Z,102356.59
2022-10-11T22:38:58.999Z,102356.66
2022-10-11T22:41:26.583Z,102351.50
2022-10-11T22:43:53.815Z,102355.03
2022-10-11T22:46:20.981Z,102359.38
2022-10-11T22:48:48.459Z,102359.38
2022-10-11T22:51:15.699Z,102362.88
2022-10-11T22:53:42.946Z,102356.81
2022-10-11T22:56:11.203Z,102356.84
2022-10-11T22:58:38.479Z,102354.28
2022-10-11T23:01:16.284Z,102343.91
2022-10-11T23:03:49.149Z,102350.03
2022-10-11T23:06:18.323Z,102342.28
2022-10-11T23:08:45.749Z,102350.13
2022-10-11T23:11:13.118Z,102348.41
2022-10-11T23:13:40.427Z,102351.03
2022-10-11T23:16:13.266Z,102345.84
2022-10-11T23:18:40.724Z,102355.41
2022-10-11T23:21:08.597Z,102343.25
2022-10-11T23:23:36.187Z,102342.41
2022-10-11T23:26:17.539Z,102351.94
2022-10-11T23:28:45.075Z,102348.47
2022-10-11T23:31:19.791Z,102349.34
2022-10-11T23:33:49.994Z,102344.13
2022-10-11T23:36:24.948Z,102345.09
2022-10-11T23:38:59.465Z,102351.16
2022-10-11T23:41:30.042Z,102350.28
2022-10-11T23:43:58.616Z,102347.72
2022-10-11T23:46:25.850Z,102348.59
2022-10-11T23:48:53.161Z,102348.59
2022-10-11T23:51:20.430Z,102347.78
2022-10-11T23:53:50.758Z,102351.25
2022-10-11T23:56:21.315Z,102341.72
2022-10-11T23:58:48.930Z,102341.75
